Takamine — 7JKK — position and weather

sailwx.info

Track history (hours):
 
Tides and Currents Weather Stations Pressure Air Temp Water Temp Dewpoint Dewpoint Depression Visibility Wind Speed Wind Dir Waves Ship Positions

Takamine

Last reported at 2014-Sep-10 08:12 UTC. Time now 2014-Sep-18 01:45 UTC.
Position N 34°45' E 139°34'.

Length 333 m; draft 10.4 m.

Type: Tanker. MMSI: 432832000.

Date/timePositionNaut miles runAvg speedWind from/ knotsBaromVisibWave heightAir tempDewpointWater temp
2014-Sep-10 08:12N 34°45' E 139°34'914.7
2014-Sep-10 07:33N 34°54' E 139°37'9 9.0
2014-Sep-10 06:33N 35°02' E 139°41'1110.6
2014-Sep-10 05:33N 35°12' E 139°46'1110.8
2014-Sep-10 04:33N 35°23' E 139°42'1212.3
2014-Sep-10 03:33N 35°31' E 139°54'2 1.9
2014-Sep-10 02:31N 35°31' E 139°56'0 0.0
2014-Sep-10 01:31N 35°31' E 139°56'0 0.0
2014-Sep-10 00:22N 35°31' E 139°56'0 0.0
2014-Sep-09 23:31N 35°31' E 139°56'0 0.0
2014-Sep-09 22:28N 35°31' E 139°56'0 0.0
2014-Sep-09 21:28N 35°31' E 139°56'0 0.0
2014-Sep-09 20:31N 35°31' E 139°56'0 0.0
2014-Sep-09 19:31N 35°31' E 139°56'0 0.0
2014-Sep-09 18:31N 35°31' E 139°56'0 0.0
2014-Sep-09 17:31N 35°31' E 139°56'0 0.0
2014-Sep-09 16:28N 35°31' E 139°56'0 0.0
2014-Sep-09 15:31N 35°31' E 139°56'0 0.0
2014-Sep-09 14:28N 35°31' E 139°56'0 0.0
2014-Sep-09 13:25N 35°31' E 139°56'0 0.0
2014-Sep-09 12:31N 35°31' E 139°56'0 0.0
2014-Sep-09 11:31N 35°31' E 139°56'0 0.0
2014-Sep-09 10:22N 35°31' E 139°56'0 0.0
2014-Sep-09 09:28N 35°31' E 139°56'0 0.0
2014-Sep-09 08:28N 35°31' E 139°56'0 0.0
2014-Sep-09 07:25N 35°31' E 139°56'0 0.0
2014-Sep-09 06:31N 35°31' E 139°56'0 0.0
2014-Sep-09 05:31N 35°31' E 139°56'0 0.0
2014-Sep-09 04:31N 35°31' E 139°56'0 0.0
2014-Sep-09 03:25N 35°31' E 139°56'0 0.0
2014-Sep-09 02:28N 35°31' E 139°56'0 0.0
2014-Sep-09 01:31N 35°31' E 139°56'0 0.0
2014-Sep-09 00:28N 35°31' E 139°56'0 0.0
2014-Sep-08 23:31N 35°31' E 139°56'0 0.0
2014-Sep-08 22:31N 35°31' E 139°56'0 0.0
2014-Sep-08 21:28N 35°31' E 139°56'0 0.0
2014-Sep-08 20:28N 35°31' E 139°56'0 0.0
2014-Sep-08 19:31N 35°31' E 139°56'0 0.0
2014-Sep-08 18:25N 35°31' E 139°56'0 0.0
2014-Sep-08 17:31N 35°31' E 139°56'0 0.0
2014-Sep-08 16:31N 35°31' E 139°56'0 0.0
2014-Sep-08 15:31N 35°31' E 139°56'0 0.0
2014-Sep-08 14:31N 35°31' E 139°56'0 0.0
2014-Sep-08 13:28N 35°31' E 139°56'0 0.0
2014-Sep-08 12:31N 35°31' E 139°56'0 0.0
2014-Sep-08 11:31N 35°31' E 139°56'0 0.0
2014-Sep-08 10:31N 35°31' E 139°56'0 0.0
2014-Sep-08 09:31N 35°31' E 139°56'0 0.0
2014-Sep-08 08:28N 35°31' E 139°56'0 0.0
2014-Sep-08 07:28N 35°31' E 139°56'0 0.0
2014-Sep-08 06:31N 35°31' E 139°56'0 0.0
2014-Sep-08 05:25N 35°31' E 139°56'0 0.0
2014-Sep-08 04:31N 35°31' E 139°56'0 0.4
2014-Sep-08 03:33N 35°31' E 139°56'4 4.5
2014-Sep-08 02:33N 35°28' E 139°51'1010.1
2014-Sep-08 01:33N 35°20' E 139°44'1010.0
2014-Sep-08 00:33N 35°10' E 139°47'8 7.7
2014-Sep-07 23:33N 35°03' E 139°43'9 8.9
2014-Sep-07 22:34N 34°54' E 139°40'9 9.1
2014-Sep-07 21:33N 34°45' E 139°41'1412.6
2014-Sep-07 20:27N 34°31' E 139°40'1715.7
2014-Sep-07 19:21N 34°17' E 139°29'  
Track history (hours):
 
Tides and Currents Weather Stations Pressure Air Temp Water Temp Dewpoint Dewpoint Depression Visibility Wind Speed Wind Dir Waves Ship Positions

Takamine

Last reported at 2014-Sep-10 08:12 UTC. Time now 2014-Sep-18 01:45 UTC.
Position N 34°45' E 139°34'.

Length 333 m; draft 10.4 m.

Type: Tanker. MMSI: 432832000.

Date/timePositionNaut miles runAvg speedWind from/ knotsBaromVisibWave heightAir tempDewpointWater temp
2014-Sep-10 08:12N 34°45' E 139°34'914.7
2014-Sep-10 07:33N 34°54' E 139°37'9 9.0
2014-Sep-10 06:33N 35°02' E 139°41'1110.6
2014-Sep-10 05:33N 35°12' E 139°46'1110.8
2014-Sep-10 04:33N 35°23' E 139°42'1212.3
2014-Sep-10 03:33N 35°31' E 139°54'2 1.9
2014-Sep-10 02:31N 35°31' E 139°56'0 0.0
2014-Sep-10 01:31N 35°31' E 139°56'0 0.0
2014-Sep-10 00:22N 35°31' E 139°56'0 0.0
2014-Sep-09 23:31N 35°31' E 139°56'0 0.0
2014-Sep-09 22:28N 35°31' E 139°56'0 0.0
2014-Sep-09 21:28N 35°31' E 139°56'0 0.0
2014-Sep-09 20:31N 35°31' E 139°56'0 0.0
2014-Sep-09 19:31N 35°31' E 139°56'0 0.0
2014-Sep-09 18:31N 35°31' E 139°56'0 0.0
2014-Sep-09 17:31N 35°31' E 139°56'0 0.0
2014-Sep-09 16:28N 35°31' E 139°56'0 0.0
2014-Sep-09 15:31N 35°31' E 139°56'0 0.0
2014-Sep-09 14:28N 35°31' E 139°56'0 0.0
2014-Sep-09 13:25N 35°31' E 139°56'0 0.0
2014-Sep-09 12:31N 35°31' E 139°56'0 0.0
2014-Sep-09 11:31N 35°31' E 139°56'0 0.0
2014-Sep-09 10:22N 35°31' E 139°56'0 0.0
2014-Sep-09 09:28N 35°31' E 139°56'0 0.0
2014-Sep-09 08:28N 35°31' E 139°56'0 0.0
2014-Sep-09 07:25N 35°31' E 139°56'0 0.0
2014-Sep-09 06:31N 35°31' E 139°56'0 0.0
2014-Sep-09 05:31N 35°31' E 139°56'0 0.0
2014-Sep-09 04:31N 35°31' E 139°56'0 0.0
2014-Sep-09 03:25N 35°31' E 139°56'0 0.0
2014-Sep-09 02:28N 35°31' E 139°56'0 0.0
2014-Sep-09 01:31N 35°31' E 139°56'0 0.0
2014-Sep-09 00:28N 35°31' E 139°56'0 0.0
2014-Sep-08 23:31N 35°31' E 139°56'0 0.0
2014-Sep-08 22:31N 35°31' E 139°56'0 0.0
2014-Sep-08 21:28N 35°31' E 139°56'0 0.0
2014-Sep-08 20:28N 35°31' E 139°56'0 0.0
2014-Sep-08 19:31N 35°31' E 139°56'0 0.0
2014-Sep-08 18:25N 35°31' E 139°56'0 0.0
2014-Sep-08 17:31N 35°31' E 139°56'0 0.0
2014-Sep-08 16:31N 35°31' E 139°56'0 0.0
2014-Sep-08 15:31N 35°31' E 139°56'0 0.0
2014-Sep-08 14:31N 35°31' E 139°56'0 0.0
2014-Sep-08 13:28N 35°31' E 139°56'0 0.0
2014-Sep-08 12:31N 35°31' E 139°56'0 0.0
2014-Sep-08 11:31N 35°31' E 139°56'0 0.0
2014-Sep-08 10:31N 35°31' E 139°56'0 0.0
2014-Sep-08 09:31N 35°31' E 139°56'0 0.0
2014-Sep-08 08:28N 35°31' E 139°56'0 0.0
2014-Sep-08 07:28N 35°31' E 139°56'0 0.0
2014-Sep-08 06:31N 35°31' E 139°56'0 0.0
2014-Sep-08 05:25N 35°31' E 139°56'0 0.0
2014-Sep-08 04:31N 35°31' E 139°56'0 0.4
2014-Sep-08 03:33N 35°31' E 139°56'4 4.5
2014-Sep-08 02:33N 35°28' E 139°51'1010.1
2014-Sep-08 01:33N 35°20' E 139°44'1010.0
2014-Sep-08 00:33N 35°10' E 139°47'8 7.7
2014-Sep-07 23:33N 35°03' E 139°43'9 8.9
2014-Sep-07 22:34N 34°54' E 139°40'9 9.1
2014-Sep-07 21:33N 34°45' E 139°41'1412.6
2014-Sep-07 20:27N 34°31' E 139°40'1715.7
2014-Sep-07 19:21N 34°17' E 139°29'  

Dump ship's entire track history